sensor_id;sensor_type;location;lat;lon;timestamp;pressure;altitude;pressure_sealevel;temperature;humidity
49044;BME280;34860;48.066;14.124;2023-01-15T00:01:40;96011.03;;;5.50;73.31
49044;BME280;34860;48.066;14.124;2023-01-15T00:04:28;96009.09;;;5.51;73.49
49044;BME280;34860;48.066;14.124;2023-01-15T00:07:16;96008.28;;;5.50;73.39
49044;BME280;34860;48.066;14.124;2023-01-15T00:10:07;95995.75;;;5.45;73.36
49044;BME280;34860;48.066;14.124;2023-01-15T00:12:55;95993.63;;;5.33;73.51
49044;BME280;34860;48.066;14.124;2023-01-15T00:15:43;95997.31;;;5.23;73.76
49044;BME280;34860;48.066;14.124;2023-01-15T00:18:31;95998.88;;;5.24;73.82
49044;BME280;34860;48.066;14.124;2023-01-15T00:21:19;95994.56;;;5.23;73.72
49044;BME280;34860;48.066;14.124;2023-01-15T00:24:08;95986.28;;;5.23;73.70
49044;BME280;34860;48.066;14.124;2023-01-15T00:27:15;95987.88;;;5.24;73.58
49044;BME280;34860;48.066;14.124;2023-01-15T00:30:20;95978.44;;;5.21;73.51
49044;BME280;34860;48.066;14.124;2023-01-15T00:33:09;95977.25;;;5.22;73.48
49044;BME280;34860;48.066;14.124;2023-01-15T00:35:58;95974.38;;;5.30;73.46
49044;BME280;34860;48.066;14.124;2023-01-15T00:38:47;95973.13;;;5.34;73.29
49044;BME280;34860;48.066;14.124;2023-01-15T00:41:35;95969.25;;;5.32;73.21
49044;BME280;34860;48.066;14.124;2023-01-15T00:44:24;95960.59;;;5.30;73.30
49044;BME280;34860;48.066;14.124;2023-01-15T00:47:12;95976.69;;;5.35;73.04
49044;BME280;34860;48.066;14.124;2023-01-15T00:50:00;95968.00;;;5.36;73.04
49044;BME280;34860;48.066;14.124;2023-01-15T00:52:49;95962.41;;;5.40;73.05
49044;BME280;34860;48.066;14.124;2023-01-15T00:55:39;95956.06;;;5.43;72.87
49044;BME280;34860;48.066;14.124;2023-01-15T00:58:27;95946.22;;;5.42;73.15
49044;BME280;34860;48.066;14.124;2023-01-15T01:01:16;95932.94;;;5.37;72.89
49044;BME280;34860;48.066;14.124;2023-01-15T01:04:04;95937.72;;;5.33;73.10
49044;BME280;34860;48.066;14.124;2023-01-15T01:06:53;95936.53;;;5.34;73.06
49044;BME280;34860;48.066;14.124;2023-01-15T01:09:42;95942.81;;;5.34;73.06
49044;BME280;34860;48.066;14.124;2023-01-15T01:12:30;95938.44;;;5.37;72.95
49044;BME280;34860;48.066;14.124;2023-01-15T01:15:20;95934.44;;;5.41;73.02
49044;BME280;34860;48.066;14.124;2023-01-15T01:18:09;95925.75;;;5.43;72.90
49044;BME280;34860;48.066;14.124;2023-01-15T01:20:57;95923.75;;;5.43;72.82
49044;BME280;34860;48.066;14.124;2023-01-15T01:23:46;95928.50;;;5.43;72.84
49044;BME280;34860;48.066;14.124;2023-01-15T01:26:34;95921.78;;;5.44;72.77
49044;BME280;34860;48.066;14.124;2023-01-15T01:29:22;95922.56;;;5.44;72.80
49044;BME280;34860;48.066;14.124;2023-01-15T01:32:10;95917.56;;;5.39;72.89
49044;BME280;34860;48.066;14.124;2023-01-15T01:35:00;95913.56;;;5.40;72.87
49044;BME280;34860;48.066;14.124;2023-01-15T01:37:49;95919.03;;;5.44;72.79
49044;BME280;34860;48.066;14.124;2023-01-15T01:40:37;95906.81;;;5.45;72.79
49044;BME280;34860;48.066;14.124;2023-01-15T01:43:28;95891.31;;;5.31;72.90
49044;BME280;34860;48.066;14.124;2023-01-15T01:46:18;95897.88;;;5.17;73.18
49044;BME280;34860;48.066;14.124;2023-01-15T01:49:08;95893.38;;;5.03;73.36
49044;BME280;34860;48.066;14.124;2023-01-15T01:52:02;95889.28;;;4.88;73.57
49044;BME280;34860;48.066;14.124;2023-01-15T01:54:51;95887.16;;;4.76;73.79
49044;BME280;34860;48.066;14.124;2023-01-15T01:57:41;95876.03;;;4.55;73.99
49044;BME280;34860;48.066;14.124;2023-01-15T02:00:30;95864.44;;;4.44;74.04
49044;BME280;34860;48.066;14.124;2023-01-15T02:03:22;95858.59;;;4.39;74.15
49044;BME280;34860;48.066;14.124;2023-01-15T02:06:14;95856.66;;;4.39;73.95
49044;BME280;34860;48.066;14.124;2023-01-15T02:09:04;95854.19;;;4.45;73.83
49044;BME280;34860;48.066;14.124;2023-01-15T02:11:55;95854.88;;;4.52;73.63
49044;BME280;34860;48.066;14.124;2023-01-15T02:14:51;95860.31;;;4.56;73.37
49044;BME280;34860;48.066;14.124;2023-01-15T02:17:48;95860.72;;;4.54;73.34
49044;BME280;34860;48.066;14.124;2023-01-15T02:20:41;95861.81;;;4.61;73.13
49044;BME280;34860;48.066;14.124;2023-01-15T02:24:04;95857.19;;;4.54;73.05
49044;BME280;34860;48.066;14.124;2023-01-15T02:27:06;95867.19;;;4.44;73.28
49044;BME280;34860;48.066;14.124;2023-01-15T02:30:01;95865.72;;;4.36;73.36
49044;BME280;34860;48.066;14.124;2023-01-15T02:32:59;95861.00;;;4.36;73.51
49044;BME280;34860;48.066;14.124;2023-01-15T02:35:54;95862.44;;;4.45;73.28
49044;BME280;34860;48.066;14.124;2023-01-15T02:38:53;95850.66;;;4.44;73.25
49044;BME280;34860;48.066;14.124;2023-01-15T02:41:47;95849.91;;;4.44;73.14
49044;BME280;34860;48.066;14.124;2023-01-15T02:44:41;95846.78;;;4.42;73.30
49044;BME280;34860;48.066;14.124;2023-01-15T02:47:35;95847.56;;;4.42;73.17
49044;BME280;34860;48.066;14.124;2023-01-15T02:50:29;95854.19;;;4.45;73.29
49044;BME280;34860;48.066;14.124;2023-01-15T02:53:24;95851.50;;;4.41;73.17
49044;BME280;34860;48.066;14.124;2023-01-15T02:56:18;95845.66;;;4.39;73.14
49044;BME280;34860;48.066;14.124;2023-01-15T02:59:14;95828.31;;;4.42;73.28
49044;BME280;34860;48.066;14.124;2023-01-15T03:02:10;95811.25;;;4.51;73.03
49044;BME280;34860;48.066;14.124;2023-01-15T03:05:04;95805.66;;;4.58;73.21
49044;BME280;34860;48.066;14.124;2023-01-15T03:07:55;95806.72;;;4.64;73.01
49044;BME280;34860;48.066;14.124;2023-01-15T03:11:01;95801.81;;;4.76;72.84
49044;BME280;34860;48.066;14.124;2023-01-15T03:14:00;95792.25;;;4.84;72.74
49044;BME280;34860;48.066;14.124;2023-01-15T03:16:56;95794.91;;;4.87;72.69
49044;BME280;34860;48.066;14.124;2023-01-15T03:19:49;95805.44;;;4.93;72.82
49044;BME280;34860;48.066;14.124;2023-01-15T03:22:44;95792.09;;;4.91;72.81
49044;BME280;34860;48.066;14.124;2023-01-15T03:25:39;95786.53;;;4.95;72.74
49044;BME280;34860;48.066;14.124;2023-01-15T03:28:32;95794.72;;;4.98;72.75
49044;BME280;34860;48.066;14.124;2023-01-15T03:31:23;95798.97;;;5.03;72.77
49044;BME280;34860;48.066;14.124;2023-01-15T03:34:11;95794.16;;;5.07;72.84
49044;BME280;34860;48.066;14.124;2023-01-15T03:37:03;95783.88;;;5.11;72.79
49044;BME280;34860;48.066;14.124;2023-01-15T03:39:52;95787.69;;;5.17;72.68
49044;BME280;34860;48.066;14.124;2023-01-15T03:42:47;95787.63;;;5.21;72.66
49044;BME280;34860;48.066;14.124;2023-01-15T03:46:01;95802.66;;;5.16;72.64
49044;BME280;34860;48.066;14.124;2023-01-15T03:48:55;95804.34;;;5.10;72.96
49044;BME280;34860;48.066;14.124;2023-01-15T03:51:52;95796.88;;;5.11;72.94
49044;BME280;34860;48.066;14.124;2023-01-15T03:54:52;95804.84;;;5.05;72.95
49044;BME280;34860;48.066;14.124;2023-01-15T03:57:48;95818.72;;;4.98;72.93
49044;BME280;34860;48.066;14.124;2023-01-15T04:00:40;95832.03;;;4.79;73.04
49044;BME280;34860;48.066;14.124;2023-01-15T04:03:33;95819.88;;;4.53;73.31
49044;BME280;34860;48.066;14.124;2023-01-15T04:06:24;95824.88;;;4.34;73.46
49044;BME280;34860;48.066;14.124;2023-01-15T04:09:14;95823.53;;;4.19;73.57
49044;BME280;34860;48.066;14.124;2023-01-15T04:12:05;95823.28;;;4.10;73.63
49044;BME280;34860;48.066;14.124;2023-01-15T04:14:58;95810.81;;;4.02;73.77
49044;BME280;34860;48.066;14.124;2023-01-15T04:17:46;95844.97;;;4.04;73.67
49044;BME280;34860;48.066;14.124;2023-01-15T04:20:35;95834.03;;;4.00;73.59
49044;BME280;34860;48.066;14.124;2023-01-15T04:23:23;95837.63;;;3.94;73.54
49044;BME280;34860;48.066;14.124;2023-01-15T04:26:11;95850.63;;;3.93;73.48
49044;BME280;34860;48.066;14.124;2023-01-15T04:29:01;95803.06;;;3.96;73.45
49044;BME280;34860;48.066;14.124;2023-01-15T04:31:49;95850.94;;;3.99;73.34
49044;BME280;34860;48.066;14.124;2023-01-15T04:34:43;95831.59;;;4.06;73.37
49044;BME280;34860;48.066;14.124;2023-01-15T04:37:31;95823.69;;;4.08;73.28
49044;BME280;34860;48.066;14.124;2023-01-15T04:40:18;95797.28;;;4.14;73.12
49044;BME280;34860;48.066;14.124;2023-01-15T04:43:20;95768.84;;;4.25;73.06
49044;BME280;34860;48.066;14.124;2023-01-15T04:46:37;95728.06;;;4.19;72.97
49044;BME280;34860;48.066;14.124;2023-01-15T04:49:25;95708.88;;;4.16;73.22
49044;BME280;34860;48.066;14.124;2023-01-15T04:52:13;95710.03;;;4.18;73.44
49044;BME280;34860;48.066;14.124;2023-01-15T04:55:03;95721.19;;;4.31;73.27
49044;BME280;34860;48.066;14.124;2023-01-15T04:57:51;95708.22;;;4.32;73.33
49044;BME280;34860;48.066;14.124;2023-01-15T05:00:39;95703.56;;;4.29;73.29
49044;BME280;34860;48.066;14.124;2023-01-15T05:03:30;95698.88;;;4.26;73.42
49044;BME280;34860;48.066;14.124;2023-01-15T05:06:18;95689.81;;;4.29;73.52
49044;BME280;34860;48.066;14.124;2023-01-15T05:09:06;95683.47;;;4.32;73.50
49044;BME280;34860;48.066;14.124;2023-01-15T05:11:54;95692.56;;;4.29;73.50
49044;BME280;34860;48.066;14.124;2023-01-15T05:14:42;95703.63;;;4.25;73.74
49044;BME280;34860;48.066;14.124;2023-01-15T05:17:30;95695.78;;;4.24;73.66
49044;BME280;34860;48.066;14.124;2023-01-15T05:20:20;95674.97;;;4.23;73.85
49044;BME280;34860;48.066;14.124;2023-01-15T05:23:08;95680.00;;;4.28;73.79
49044;BME280;34860;48.066;14.124;2023-01-15T05:25:56;95672.38;;;4.35;73.61
49044;BME280;34860;48.066;14.124;2023-01-15T05:28:44;95660.50;;;4.42;73.52
49044;BME280;34860;48.066;14.124;2023-01-15T05:31:32;95651.44;;;4.42;73.56
49044;BME280;34860;48.066;14.124;2023-01-15T05:34:21;95656.94;;;4.42;73.62
49044;BME280;34860;48.066;14.124;2023-01-15T05:37:11;95644.63;;;4.50;73.68
49044;BME280;34860;48.066;14.124;2023-01-15T05:39:59;95635.59;;;4.49;73.60
49044;BME280;34860;48.066;14.124;2023-01-15T05:42:47;95627.06;;;4.44;73.54
49044;BME280;34860;48.066;14.124;2023-01-15T05:45:35;95620.44;;;4.41;73.80
49044;BME280;34860;48.066;14.124;2023-01-15T05:48:23;95608.69;;;4.37;73.90
49044;BME280;34860;48.066;14.124;2023-01-15T05:51:11;95599.00;;;4.32;73.83
49044;BME280;34860;48.066;14.124;2023-01-15T05:54:00;95585.72;;;4.27;73.99
49044;BME280;34860;48.066;14.124;2023-01-15T05:56:49;95595.53;;;4.28;73.98
49044;BME280;34860;48.066;14.124;2023-01-15T05:59:38;95595.44;;;4.32;74.00
49044;BME280;34860;48.066;14.124;2023-01-15T06:02:26;95591.63;;;4.26;73.90
49044;BME280;34860;48.066;14.124;2023-01-15T06:05:14;95580.34;;;4.20;73.98
49044;BME280;34860;48.066;14.124;2023-01-15T06:08:05;95564.78;;;4.13;74.06
49044;BME280;34860;48.066;14.124;2023-01-15T06:10:55;95558.63;;;4.06;74.20
49044;BME280;34860;48.066;14.124;2023-01-15T06:13:43;95552.34;;;4.05;74.14
49044;BME280;34860;48.066;14.124;2023-01-15T06:16:32;95563.72;;;4.07;74.29
49044;BME280;34860;48.066;14.124;2023-01-15T06:19:20;95557.63;;;4.16;74.05
49044;BME280;34860;48.066;14.124;2023-01-15T06:22:08;95549.69;;;4.22;73.80
49044;BME280;34860;48.066;14.124;2023-01-15T06:24:56;95550.81;;;4.24;73.80
49044;BME280;34860;48.066;14.124;2023-01-15T06:27:46;95546.44;;;4.27;73.77
49044;BME280;34860;48.066;14.124;2023-01-15T06:30:36;95557.00;;;4.28;73.69
49044;BME280;34860;48.066;14.124;2023-01-15T06:33:25;95565.28;;;4.28;73.66
49044;BME280;34860;48.066;14.124;2023-01-15T06:36:14;95551.88;;;4.30;73.65
49044;BME280;34860;48.066;14.124;2023-01-15T06:39:03;95559.19;;;4.37;73.57
49044;BME280;34860;48.066;14.124;2023-01-15T06:41:51;95558.78;;;4.39;73.42
49044;BME280;34860;48.066;14.124;2023-01-15T06:44:57;95560.03;;;4.34;73.43
49044;BME280;34860;48.066;14.124;2023-01-15T06:48:03;95535.66;;;4.36;73.41
49044;BME280;34860;48.066;14.124;2023-01-15T06:50:53;95540.09;;;4.30;73.43
49044;BME280;34860;48.066;14.124;2023-01-15T06:53:41;95561.19;;;4.36;73.67
49044;BME280;34860;48.066;14.124;2023-01-15T06:56:29;95556.81;;;4.39;73.47
49044;BME280;34860;48.066;14.124;2023-01-15T06:59:17;95528.38;;;4.46;73.42
49044;BME280;34860;48.066;14.124;2023-01-15T07:02:08;95526.06;;;4.44;73.46
49044;BME280;34860;48.066;14.124;2023-01-15T07:04:56;95530.38;;;4.45;73.47
49044;BME280;34860;48.066;14.124;2023-01-15T07:07:44;95531.13;;;4.46;73.48
49044;BME280;34860;48.066;14.124;2023-01-15T07:10:33;95525.47;;;4.53;73.40
49044;BME280;34860;48.066;14.124;2023-01-15T07:13:21;95536.47;;;4.53;73.15
49044;BME280;34860;48.066;14.124;2023-01-15T07:16:09;95537.59;;;4.55;73.29
49044;BME280;34860;48.066;14.124;2023-01-15T07:19:14;95520.75;;;4.53;73.46
49044;BME280;34860;48.066;14.124;2023-01-15T07:22:02;95538.03;;;4.54;73.35
49044;BME280;34860;48.066;14.124;2023-01-15T07:24:50;95557.72;;;4.52;73.51
49044;BME280;34860;48.066;14.124;2023-01-15T07:27:38;95537.94;;;4.58;73.42
49044;BME280;34860;48.066;14.124;2023-01-15T07:30:26;95545.34;;;4.61;73.43
49044;BME280;34860;48.066;14.124;2023-01-15T07:33:14;95558.78;;;4.59;73.36
49044;BME280;34860;48.066;14.124;2023-01-15T07:36:04;95559.13;;;4.61;73.39
49044;BME280;34860;48.066;14.124;2023-01-15T07:38:52;95585.16;;;4.56;73.26
49044;BME280;34860;48.066;14.124;2023-01-15T07:41:40;95582.47;;;4.52;73.28
49044;BME280;34860;48.066;14.124;2023-01-15T07:44:46;95594.25;;;4.53;73.39
49044;BME280;34860;48.066;14.124;2023-01-15T07:47:52;95594.31;;;4.49;72.95
49044;BME280;34860;48.066;14.124;2023-01-15T07:50:58;95585.22;;;4.52;73.37
49044;BME280;34860;48.066;14.124;2023-01-15T07:53:47;95612.81;;;4.49;73.10
49044;BME280;34860;48.066;14.124;2023-01-15T07:56:35;95590.47;;;4.47;73.40
49044;BME280;34860;48.066;14.124;2023-01-15T07:59:23;95606.41;;;4.55;73.29
49044;BME280;34860;48.066;14.124;2023-01-15T08:02:11;95621.50;;;4.47;73.15
49044;BME280;34860;48.066;14.124;2023-01-15T08:05:00;95610.97;;;4.42;73.31
49044;BME280;34860;48.066;14.124;2023-01-15T08:07:48;95615.75;;;4.38;73.27
49044;BME280;34860;48.066;14.124;2023-01-15T08:10:37;95615.66;;;4.45;73.46
49044;BME280;34860;48.066;14.124;2023-01-15T08:13:45;95611.19;;;4.51;73.42
49044;BME280;34860;48.066;14.124;2023-01-15T08:16:50;95611.91;;;4.55;73.41
49044;BME280;34860;48.066;14.124;2023-01-15T08:19:39;95597.59;;;4.64;73.28
49044;BME280;34860;48.066;14.124;2023-01-15T08:22:28;95589.09;;;4.75;73.17
49044;BME280;34860;48.066;14.124;2023-01-15T08:25:17;95583.44;;;4.82;73.00
49044;BME280;34860;48.066;14.124;2023-01-15T08:28:07;95582.22;;;4.83;72.99
49044;BME280;34860;48.066;14.124;2023-01-15T08:30:55;95589.72;;;4.83;73.13
49044;BME280;34860;48.066;14.124;2023-01-15T08:33:43;95584.13;;;4.86;73.01
49044;BME280;34860;48.066;14.124;2023-01-15T08:36:31;95576.41;;;4.98;73.11
49044;BME280;34860;48.066;14.124;2023-01-15T08:39:19;95579.78;;;5.05;73.12
49044;BME280;34860;48.066;14.124;2023-01-15T08:42:07;95568.97;;;5.15;73.05
49044;BME280;34860;48.066;14.124;2023-01-15T08:44:57;95568.97;;;5.15;73.08
49044;BME280;34860;48.066;14.124;2023-01-15T08:47:45;95568.53;;;5.16;73.14
49044;BME280;34860;48.066;14.124;2023-01-15T08:50:33;95560.38;;;5.13;73.19
49044;BME280;34860;48.066;14.124;2023-01-15T08:53:21;95560.50;;;5.05;73.54
49044;BME280;34860;48.066;14.124;2023-01-15T08:56:11;95548.88;;;4.98;73.54
49044;BME280;34860;48.066;14.124;2023-01-15T08:59:03;95540.88;;;4.87;73.81
49044;BME280;34860;48.066;14.124;2023-01-15T09:01:53;95549.91;;;4.87;73.94
49044;BME280;34860;48.066;14.124;2023-01-15T09:04:41;95555.75;;;4.89;74.02
49044;BME280;34860;48.066;14.124;2023-01-15T09:07:29;95551.91;;;4.87;74.11
49044;BME280;34860;48.066;14.124;2023-01-15T09:10:17;95550.25;;;4.89;73.93
49044;BME280;34860;48.066;14.124;2023-01-15T09:13:05;95558.09;;;4.91;74.03
49044;BME280;34860;48.066;14.124;2023-01-15T09:15:53;95552.06;;;4.96;73.88
49044;BME280;34860;48.066;14.124;2023-01-15T09:18:43;95552.56;;;4.91;73.92
49044;BME280;34860;48.066;14.124;2023-01-15T09:21:31;95550.00;;;4.84;74.03
49044;BME280;34860;48.066;14.124;2023-01-15T09:24:19;95547.56;;;4.86;74.09
49044;BME280;34860;48.066;14.124;2023-01-15T09:27:09;95543.88;;;4.93;74.16
49044;BME280;34860;48.066;14.124;2023-01-15T09:29:57;95551.50;;;5.05;73.91
49044;BME280;34860;48.066;14.124;2023-01-15T09:32:45;95535.25;;;5.11;73.80
49044;BME280;34860;48.066;14.124;2023-01-15T09:35:35;95538.44;;;5.09;73.54
49044;BME280;34860;48.066;14.124;2023-01-15T09:38:23;95537.19;;;5.10;73.90
49044;BME280;34860;48.066;14.124;2023-01-15T09:41:14;95535.78;;;5.22;73.76
49044;BME280;34860;48.066;14.124;2023-01-15T09:44:29;95535.75;;;5.38;73.65
49044;BME280;34860;48.066;14.124;2023-01-15T09:47:22;95524.06;;;5.51;73.31
49044;BME280;34860;48.066;14.124;2023-01-15T09:50:22;95542.72;;;5.59;73.29
49044;BME280;34860;48.066;14.124;2023-01-15T09:53:22;95548.50;;;5.65;73.31
49044;BME280;34860;48.066;14.124;2023-01-15T09:56:19;95541.59;;;5.73;73.09
49044;BME280;34860;48.066;14.124;2023-01-15T09:59:18;95525.22;;;5.82;73.11
49044;BME280;34860;48.066;14.124;2023-01-15T10:02:18;95533.41;;;5.86;72.95
49044;BME280;34860;48.066;14.124;2023-01-15T10:05:14;95523.28;;;5.96;72.90
49044;BME280;34860;48.066;14.124;2023-01-15T10:08:10;95520.28;;;6.07;72.75
49044;BME280;34860;48.066;14.124;2023-01-15T10:11:03;95514.22;;;6.12;72.82
49044;BME280;34860;48.066;14.124;2023-01-15T10:13:56;95506.72;;;6.12;72.78
49044;BME280;34860;48.066;14.124;2023-01-15T10:16:47;95503.97;;;6.12;72.91
49044;BME280;34860;48.066;14.124;2023-01-15T10:19:35;95504.75;;;6.13;72.91
49044;BME280;34860;48.066;14.124;2023-01-15T10:22:40;95494.34;;;6.04;73.16
49044;BME280;34860;48.066;14.124;2023-01-15T10:25:37;95495.72;;;5.96;73.42
49044;BME280;34860;48.066;14.124;2023-01-15T10:28:39;95483.56;;;5.93;73.52
49044;BME280;34860;48.066;14.124;2023-01-15T10:31:48;95468.00;;;5.87;73.69
49044;BME280;34860;48.066;14.124;2023-01-15T10:34:54;95459.34;;;5.72;73.80
49044;BME280;34860;48.066;14.124;2023-01-15T10:37:52;95453.66;;;5.62;73.99
49044;BME280;34860;48.066;14.124;2023-01-15T10:40:56;95438.69;;;5.63;74.08
49044;BME280;34860;48.066;14.124;2023-01-15T10:43:54;95436.38;;;5.62;74.03
49044;BME280;34860;48.066;14.124;2023-01-15T10:46:49;95438.91;;;5.69;73.97
49044;BME280;34860;48.066;14.124;2023-01-15T10:49:40;95428.72;;;5.82;73.59
49044;BME280;34860;48.066;14.124;2023-01-15T10:52:31;95433.00;;;5.83;73.63
49044;BME280;34860;48.066;14.124;2023-01-15T10:55:23;95443.19;;;5.87;73.52
49044;BME280;34860;48.066;14.124;2023-01-15T10:58:18;95432.22;;;5.99;73.32
49044;BME280;34860;48.066;14.124;2023-01-15T11:01:12;95420.31;;;6.03;73.26
49044;BME280;34860;48.066;14.124;2023-01-15T11:04:01;95420.50;;;5.95;73.42
49044;BME280;34860;48.066;14.124;2023-01-15T11:06:49;95426.69;;;5.99;73.56
49044;BME280;34860;48.066;14.124;2023-01-15T11:09:40;95436.22;;;6.11;73.43
49044;BME280;34860;48.066;14.124;2023-01-15T11:12:28;95426.28;;;6.14;73.29
49044;BME280;34860;48.066;14.124;2023-01-15T11:15:47;95446.47;;;6.11;73.38
49044;BME280;34860;48.066;14.124;2023-01-15T11:18:54;95418.66;;;6.05;73.34
49044;BME280;34860;48.066;14.124;2023-01-15T11:22:05;95414.56;;;5.97;73.54
49044;BME280;34860;48.066;14.124;2023-01-15T11:24:57;95419.03;;;5.91;73.65
49044;BME280;34860;48.066;14.124;2023-01-15T11:27:48;95405.38;;;5.87;73.61
49044;BME280;34860;48.066;14.124;2023-01-15T11:30:37;95389.25;;;5.86;73.70
49044;BME280;34860;48.066;14.124;2023-01-15T11:33:28;95378.88;;;5.90;73.56
49044;BME280;34860;48.066;14.124;2023-01-15T11:36:23;95397.09;;;5.87;73.73
49044;BME280;34860;48.066;14.124;2023-01-15T11:39:22;95403.22;;;5.78;73.61
49044;BME280;34860;48.066;14.124;2023-01-15T11:42:15;95401.94;;;5.83;73.71
49044;BME280;34860;48.066;14.124;2023-01-15T11:45:22;95424.56;;;5.91;73.38
49044;BME280;34860;48.066;14.124;2023-01-15T11:48:28;95427.94;;;5.82;73.36
49044;BME280;34860;48.066;14.124;2023-01-15T11:51:38;95399.59;;;5.81;73.49
49044;BME280;34860;48.066;14.124;2023-01-15T11:54:29;95415.03;;;5.79;73.45
49044;BME280;34860;48.066;14.124;2023-01-15T11:57:24;95432.78;;;5.78;73.42
49044;BME280;34860;48.066;14.124;2023-01-15T12:00:20;95393.19;;;5.72;73.37
49044;BME280;34860;48.066;14.124;2023-01-15T12:03:14;95426.31;;;5.55;73.48
49044;BME280;34860;48.066;14.124;2023-01-15T12:06:06;95400.13;;;5.47;73.82
49044;BME280;34860;48.066;14.124;2023-01-15T12:09:01;95427.25;;;5.49;73.94
49044;BME280;34860;48.066;14.124;2023-01-15T12:12:01;95418.56;;;5.50;73.76
49044;BME280;34860;48.066;14.124;2023-01-15T12:15:03;95438.44;;;5.58;73.77
49044;BME280;34860;48.066;14.124;2023-01-15T12:18:19;95423.94;;;5.70;73.45
49044;BME280;34860;48.066;14.124;2023-01-15T12:21:24;95435.13;;;5.79;73.53
49044;BME280;34860;48.066;14.124;2023-01-15T12:24:34;95424.38;;;5.98;73.28
49044;BME280;34860;48.066;14.124;2023-01-15T12:27:46;95424.94;;;6.06;73.18
49044;BME280;34860;48.066;14.124;2023-01-15T12:30:43;95429.16;;;6.10;73.04
49044;BME280;34860;48.066;14.124;2023-01-15T12:33:38;95443.81;;;6.07;72.94
49044;BME280;34860;48.066;14.124;2023-01-15T12:36:32;95467.72;;;5.97;73.16
49044;BME280;34860;48.066;14.124;2023-01-15T12:39:29;95468.69;;;5.91;73.29
49044;BME280;34860;48.066;14.124;2023-01-15T12:42:22;95483.44;;;5.84;73.41
49044;BME280;34860;48.066;14.124;2023-01-15T12:45:31;95484.31;;;5.81;73.42
49044;BME280;34860;48.066;14.124;2023-01-15T12:48:26;95494.47;;;5.84;73.28
49044;BME280;34860;48.066;14.124;2023-01-15T12:51:22;95503.72;;;5.90;73.43
49044;BME280;34860;48.066;14.124;2023-01-15T12:54:18;95525.66;;;5.97;73.24
49044;BME280;34860;48.066;14.124;2023-01-15T12:57:15;95537.44;;;5.98;73.28
49044;BME280;34860;48.066;14.124;2023-01-15T13:00:11;95563.19;;;5.91;73.26
49044;BME280;34860;48.066;14.124;2023-01-15T13:03:14;95582.75;;;5.80;73.37
49044;BME280;34860;48.066;14.124;2023-01-15T13:06:05;95608.28;;;5.68;73.39
49044;BME280;34860;48.066;14.124;2023-01-15T13:08:59;95619.13;;;5.59;73.50
49044;BME280;34860;48.066;14.124;2023-01-15T13:11:48;95632.22;;;5.55;73.55
49044;BME280;34860;48.066;14.124;2023-01-15T13:14:38;95636.19;;;5.54;73.72
49044;BME280;34860;48.066;14.124;2023-01-15T13:17:33;95646.34;;;5.57;73.48
49044;BME280;34860;48.066;14.124;2023-01-15T13:20:32;95667.88;;;5.62;73.74
49044;BME280;34860;48.066;14.124;2023-01-15T13:23:35;95693.31;;;5.70;73.27
49044;BME280;34860;48.066;14.124;2023-01-15T13:26:41;95712.00;;;5.78;73.13
49044;BME280;34860;48.066;14.124;2023-01-15T13:29:42;95726.06;;;5.84;73.02
49044;BME280;34860;48.066;14.124;2023-01-15T13:32:37;95737.00;;;5.88;73.07
49044;BME280;34860;48.066;14.124;2023-01-15T13:35:30;95750.28;;;5.93;73.03
49044;BME280;34860;48.066;14.124;2023-01-15T13:38:22;95748.66;;;5.95;73.14
49044;BME280;34860;48.066;14.124;2023-01-15T13:41:17;95767.47;;;6.00;73.11
49044;BME280;34860;48.066;14.124;2023-01-15T13:44:30;95768.63;;;6.03;72.99
49044;BME280;34860;48.066;14.124;2023-01-15T13:47:22;95791.78;;;6.06;73.08
49044;BME280;34860;48.066;14.124;2023-01-15T13:50:13;95807.56;;;6.05;73.02
49044;BME280;34860;48.066;14.124;2023-01-15T13:53:06;95818.69;;;6.02;73.05
49044;BME280;34860;48.066;14.124;2023-01-15T13:56:03;95818.47;;;5.92;73.19
49044;BME280;34860;48.066;14.124;2023-01-15T13:58:54;95830.84;;;5.84;73.32
49044;BME280;34860;48.066;14.124;2023-01-15T14:01:42;95847.09;;;5.78;73.31
49044;BME280;34860;48.066;14.124;2023-01-15T14:04:36;95844.06;;;5.73;73.44
49044;BME280;34860;48.066;14.124;2023-01-15T14:07:32;95841.78;;;5.68;73.48
49044;BME280;34860;48.066;14.124;2023-01-15T14:10:33;95871.44;;;5.63;73.56
49044;BME280;34860;48.066;14.124;2023-01-15T14:13:58;95872.63;;;5.62;73.50
49044;BME280;34860;48.066;14.124;2023-01-15T14:16:58;95884.91;;;5.58;73.32
49044;BME280;34860;48.066;14.124;2023-01-15T14:20:13;95893.59;;;5.56;73.54
49044;BME280;34860;48.066;14.124;2023-01-15T14:23:20;95899.97;;;5.53;73.46
49044;BME280;34860;48.066;14.124;2023-01-15T14:26:17;95904.41;;;5.47;73.52
49044;BME280;34860;48.066;14.124;2023-01-15T14:29:31;95908.78;;;5.44;73.62
49044;BME280;34860;48.066;14.124;2023-01-15T14:32:30;95915.16;;;5.41;73.56
49044;BME280;34860;48.066;14.124;2023-01-15T14:35:26;95930.53;;;5.39;73.49
49044;BME280;34860;48.066;14.124;2023-01-15T14:38:17;95934.09;;;5.39;73.57
49044;BME280;34860;48.066;14.124;2023-01-15T14:41:05;95936.03;;;5.39;73.64
49044;BME280;34860;48.066;14.124;2023-01-15T14:43:54;95944.72;;;5.37;73.58
49044;BME280;34860;48.066;14.124;2023-01-15T14:46:42;95952.28;;;5.33;73.53
49044;BME280;34860;48.066;14.124;2023-01-15T14:49:42;95961.16;;;5.21;73.76
49044;BME280;34860;48.066;14.124;2023-01-15T14:52:36;95956.91;;;5.16;73.81
49044;BME280;34860;48.066;14.124;2023-01-15T14:55:25;95967.63;;;5.11;73.84
49044;BME280;34860;48.066;14.124;2023-01-15T14:58:16;95969.72;;;5.03;73.98
49044;BME280;34860;48.066;14.124;2023-01-15T15:01:20;95979.63;;;4.97;74.00
49044;BME280;34860;48.066;14.124;2023-01-15T15:04:18;95969.44;;;4.94;74.11
49044;BME280;34860;48.066;14.124;2023-01-15T15:07:11;95968.31;;;4.91;73.96
49044;BME280;34860;48.066;14.124;2023-01-15T15:10:03;95971.47;;;4.89;74.10
49044;BME280;34860;48.066;14.124;2023-01-15T15:12:57;95981.72;;;4.89;74.08
49044;BME280;34860;48.066;14.124;2023-01-15T15:15:49;95984.53;;;4.85;73.98
49044;BME280;34860;48.066;14.124;2023-01-15T15:18:43;95975.94;;;4.80;74.00